createdAt,value
2017-11-27T00:00:05.824Z,30.9
2017-11-27T00:02:05.076Z,30.9
2017-11-27T00:04:05.817Z,31
2017-11-27T00:06:05.613Z,31
2017-11-27T00:08:05.390Z,30.8
2017-11-27T00:10:05.131Z,30.8
2017-11-27T00:12:05.845Z,30.8
2017-11-27T00:14:08.080Z,30.8
2017-11-27T00:16:08.374Z,30.6
2017-11-27T00:18:07.850Z,30.8
2017-11-27T00:20:05.227Z,30.8
2017-11-27T00:22:06.074Z,30.8
2017-11-27T00:24:05.830Z,30.9
2017-11-27T00:26:05.119Z,30.6
2017-11-27T00:28:05.349Z,30.6
2017-11-27T00:30:05.090Z,30.6
2017-11-27T00:32:05.803Z,30.6
2017-11-27T00:34:10.618Z,30.7
2017-11-27T00:36:05.390Z,30.7
2017-11-27T00:38:05.119Z,30.6
2017-11-27T00:40:05.919Z,30.6
2017-11-27T00:42:08.258Z,30.6
2017-11-27T00:44:06.078Z,30.7
2017-11-27T00:46:05.787Z,30.6
2017-11-27T00:48:05.523Z,30.6
2017-11-27T00:50:05.253Z,30.7
2017-11-27T00:52:06.026Z,30.6
2017-11-27T00:54:05.396Z,30.7
2017-11-27T00:56:05.631Z,30.6
2017-11-27T00:58:05.568Z,30.6
2017-11-27T01:00:05.804Z,30.6
2017-11-27T01:02:05.523Z,30.6
2017-11-27T01:04:05.318Z,30.6
2017-11-27T01:06:05.138Z,30.6
2017-11-27T01:08:05.867Z,30.7
2017-11-27T01:10:05.587Z,30.6
2017-11-27T01:12:10.957Z,30.6
2017-11-27T01:14:05.664Z,30.6
2017-11-27T01:16:08.006Z,30.6
2017-11-27T01:18:05.513Z,30.6
2017-11-27T01:20:05.216Z,30.6
2017-11-27T01:22:05.060Z,30.6
2017-11-27T01:24:05.810Z,30.6
2017-11-27T01:26:05.582Z,30.6
2017-11-27T01:28:05.322Z,30.6
2017-11-27T01:30:07.651Z,30.6
2017-11-27T01:32:05.913Z,30.6
2017-11-27T01:34:08.213Z,30.4
2017-11-27T01:36:05.084Z,30.6
2017-11-27T01:38:05.786Z,30.7
2017-11-27T01:40:05.553Z,30.6
2017-11-27T01:42:10.312Z,30.5
2017-11-27T01:44:06.036Z,30.5
2017-11-27T01:46:05.810Z,30.6
2017-11-27T01:48:05.518Z,30.7
2017-11-27T01:50:05.228Z,30.7
2017-11-27T01:52:05.952Z,30.7
2017-11-27T01:54:05.657Z,30.5
2017-11-27T01:56:07.956Z,30.7
2017-11-27T01:58:05.746Z,30.5
2017-11-27T02:00:05.502Z,30.7
2017-11-27T02:02:07.837Z,30.7
2017-11-27T02:04:05.692Z,30.5
2017-11-27T02:06:05.510Z,30.7
2017-11-27T02:08:05.368Z,30.5
2017-11-27T02:10:07.640Z,30.5
2017-11-27T02:12:05.308Z,30.5
2017-11-27T02:14:08.097Z,30.5
2017-11-27T02:16:05.784Z,30.5
2017-11-27T02:18:05.228Z,30.7
2017-11-27T02:20:08.529Z,30.5
2017-11-27T02:22:05.294Z,30.5
2017-11-27T02:24:05.034Z,30.5
2017-11-27T02:26:05.764Z,30.8
2017-11-27T02:28:05.033Z,30.5
2017-11-27T02:30:13.369Z,30.5
2017-11-27T02:32:05.159Z,30.5
2017-11-27T02:34:05.951Z,30.7
2017-11-27T02:36:05.734Z,30.5
2017-11-27T02:38:10.711Z,30.7
2017-11-27T02:40:06.029Z,30.7
2017-11-27T02:42:05.280Z,30.5
2017-11-27T02:44:07.678Z,30.5
2017-11-27T02:46:05.475Z,30.5
2017-11-27T02:48:05.382Z,30.5
2017-11-27T02:50:05.093Z,30.5
2017-11-27T02:52:05.834Z,30.5
2017-11-27T02:54:05.767Z,30.5
2017-11-27T02:56:05.603Z,30.5
2017-11-27T02:58:07.945Z,30.5
2017-11-27T03:00:05.715Z,30.5
2017-11-27T03:02:10.511Z,30.5
2017-11-27T03:04:05.258Z,30.5
2017-11-27T03:06:08.613Z,30.5
2017-11-27T03:08:05.580Z,30.5
2017-11-27T03:10:05.502Z,30.5
2017-11-27T03:12:10.364Z,30.5
2017-11-27T03:14:05.103Z,30.5
2017-11-27T03:16:05.909Z,30.6
2017-11-27T03:18:08.618Z,30.5
2017-11-27T03:20:07.892Z,30.5
2017-11-27T03:22:05.652Z,30.5
2017-11-27T03:24:05.540Z,30.5
2017-11-27T03:26:05.257Z,30.6
2017-11-27T03:28:05.545Z,30.5
2017-11-27T03:30:07.818Z,30.5
2017-11-27T03:32:10.649Z,30.5
2017-11-27T03:34:05.399Z,30.5
2017-11-27T03:36:05.182Z,30.5
2017-11-27T03:38:05.949Z,30.5
2017-11-27T03:40:05.857Z,30.5
2017-11-27T03:42:05.570Z,30.7
2017-11-27T03:44:07.863Z,30.5
2017-11-27T03:46:05.134Z,30.5
2017-11-27T03:48:05.826Z,30.5
2017-11-27T03:50:07.616Z,30.5
2017-11-27T03:52:05.438Z,30.5
2017-11-27T03:54:05.216Z,30.5
2017-11-27T03:56:05.936Z,30.5
2017-11-27T03:58:05.763Z,30.5
2017-11-27T04:00:05.516Z,30.5
2017-11-27T04:02:05.791Z,30.6
2017-11-27T04:04:05.634Z,30.5
2017-11-27T04:06:06.354Z,30.6
2017-11-27T04:08:05.089Z,30.5
2017-11-27T04:10:08.433Z,30.5
2017-11-27T04:12:12.780Z,30.5
2017-11-27T04:14:10.694Z,30.5
2017-11-27T04:16:06.013Z,30.5
2017-11-27T04:18:05.982Z,30.5
2017-11-27T04:20:05.742Z,30.5
2017-11-27T04:22:05.590Z,30.5
2017-11-27T04:24:05.355Z,30.8
2017-11-27T04:26:12.677Z,30.8
2017-11-27T04:28:06.158Z,30.5
2017-11-27T04:30:05.899Z,30.8
2017-11-27T04:32:05.727Z,30.7
2017-11-27T04:34:06.059Z,30.5
2017-11-27T04:36:05.852Z,30.7
2017-11-27T04:38:05.073Z,30.7
2017-11-27T04:40:05.886Z,30.5
2017-11-27T04:42:05.681Z,30.5
2017-11-27T04:44:08.444Z,30.7
2017-11-27T04:46:05.253Z,30.5
2017-11-27T04:48:08.519Z,30.7
2017-11-27T04:50:05.855Z,30.8
2017-11-27T04:52:05.692Z,30.7
2017-11-27T04:54:05.464Z,30.5
2017-11-27T04:56:05.709Z,30.5
2017-11-27T04:58:05.523Z,30.5
2017-11-27T05:00:06.293Z,30.5
2017-11-27T05:02:05.552Z,30.7
2017-11-27T05:04:07.889Z,30.7
2017-11-27T05:06:05.692Z,30.7
2017-11-27T05:08:05.417Z,30.5
2017-11-27T05:10:05.204Z,30.7
2017-11-27T05:12:05.953Z,30.7
2017-11-27T05:14:05.689Z,30.4
2017-11-27T05:16:05.522Z,30.7
2017-11-27T05:18:06.400Z,30.5
2017-11-27T05:20:07.626Z,30.6
2017-11-27T05:22:05.959Z,30.4
2017-11-27T05:24:05.670Z,30.5
2017-11-27T05:26:05.406Z,30.7
2017-11-27T05:28:05.170Z,30.5
2017-11-27T05:30:10.959Z,30.5
2017-11-27T05:32:05.702Z,30.7
2017-11-27T05:34:05.532Z,30.5
2017-11-27T05:36:10.971Z,30.7
2017-11-27T05:38:05.296Z,30.4
2017-11-27T05:40:05.044Z,30.7
2017-11-27T05:42:05.794Z,30.7
2017-11-27T05:44:07.564Z,30.7
2017-11-27T05:46:05.368Z,30.7
2017-11-27T05:48:10.562Z,30.7
2017-11-27T05:50:09.252Z,30.1
2017-11-27T05:52:05.916Z,30.8
2017-11-27T05:54:07.705Z,30.5
2017-11-27T05:56:05.976Z,30.6
2017-11-27T05:58:08.310Z,30.8
2017-11-27T06:00:06.001Z,30.6
2017-11-27T06:02:05.722Z,30.8
2017-11-27T06:04:08.057Z,30.9
2017-11-27T06:06:05.883Z,30.6
2017-11-27T06:08:05.149Z,30.8
2017-11-27T06:10:05.937Z,30.6
2017-11-27T06:12:05.200Z,30.7
2017-11-27T06:14:05.464Z,30.9
2017-11-27T06:16:05.800Z,30.9
2017-11-27T06:18:05.968Z,30.7
2017-11-27T06:20:05.714Z,30.7
2017-11-27T06:22:05.423Z,30.9
2017-11-27T06:24:05.123Z,30.9
2017-11-27T06:26:05.902Z,30.9
2017-11-27T06:28:13.208Z,30.9
2017-11-27T06:30:06.030Z,30.7
2017-11-27T06:32:05.858Z,30.9
2017-11-27T06:34:05.563Z,30.9
2017-11-27T06:36:05.333Z,30.9
2017-11-27T06:38:05.048Z,30.9
2017-11-27T06:40:08.263Z,30.9
2017-11-27T06:42:05.991Z,30.9
2017-11-27T06:44:05.304Z,30.9
2017-11-27T06:46:05.078Z,30.8
2017-11-27T06:48:05.815Z,30.8
2017-11-27T06:50:05.554Z,30.8
2017-11-27T06:52:05.377Z,30.8
2017-11-27T06:54:08.138Z,31
2017-11-27T06:56:05.425Z,30.8
2017-11-27T06:58:05.781Z,30.9
2017-11-27T07:00:05.031Z,30.9
2017-11-27T07:02:05.746Z,30.8
2017-11-27T07:04:05.506Z,31
2017-11-27T07:06:05.439Z,30.8
2017-11-27T07:08:08.085Z,31
2017-11-27T07:10:10.385Z,31
2017-11-27T07:12:05.374Z,31
2017-11-27T07:14:05.123Z,31
2017-11-27T07:16:05.855Z,31
2017-11-27T07:18:10.374Z,31
2017-11-27T07:20:05.232Z,31
2017-11-27T07:22:08.523Z,31
2017-11-27T07:24:07.793Z,31
2017-11-27T07:26:08.103Z,31
2017-11-27T07:28:05.982Z,31
2017-11-27T07:30:13.298Z,31
2017-11-27T07:32:05.061Z,31
2017-11-27T07:34:05.796Z,31
2017-11-27T07:36:08.057Z,31
2017-11-27T07:38:07.884Z,31.3
2017-11-27T07:40:05.247Z,31.2
2017-11-27T07:42:05.974Z,31.2
2017-11-27T07:44:05.900Z,31.2
2017-11-27T07:46:05.942Z,31.2
2017-11-27T07:48:06.417Z,31.2
2017-11-27T07:50:05.908Z,31.3
2017-11-27T07:52:11.653Z,31.2
2017-11-27T07:54:08.153Z,31.2
2017-11-27T07:56:05.923Z,31.2
2017-11-27T07:58:09.824Z,31.2
2017-11-27T08:00:05.544Z,31.2
2017-11-27T08:02:05.307Z,31.2
2017-11-27T08:04:05.071Z,31.2
2017-11-27T08:06:05.795Z,31.2
2017-11-27T08:08:05.035Z,31.3
2017-11-27T08:10:05.756Z,31.2
2017-11-27T08:12:05.497Z,31.3
2017-11-27T08:14:07.828Z,31.3
2017-11-27T08:16:08.110Z,31.3
2017-11-27T08:18:05.608Z,31.3
2017-11-27T08:20:05.417Z,31.3
2017-11-27T08:22:05.181Z,31.3
2017-11-27T08:24:05.949Z,31.5
2017-11-27T08:26:08.286Z,31.3
2017-11-27T08:28:06.152Z,31.3
2017-11-27T08:30:08.433Z,31.5
2017-11-27T08:32:05.606Z,31.5
2017-11-27T08:34:05.388Z,31.5
2017-11-27T08:36:05.419Z,31.5
2017-11-27T08:38:05.163Z,31.3
2017-11-27T08:40:05.905Z,31.3
2017-11-27T08:42:07.743Z,31.3
2017-11-27T08:44:05.556Z,31.5
2017-11-27T08:46:07.867Z,31.5
2017-11-27T08:48:10.661Z,31.5
2017-11-27T08:50:05.395Z,31.3
2017-11-27T08:52:05.318Z,31.5
2017-11-27T08:54:05.061Z,31.5
2017-11-27T08:56:07.888Z,31.5
2017-11-27T08:58:10.706Z,31.5
2017-11-27T09:00:05.611Z,31.5
2017-11-27T09:02:07.867Z,31.7
2017-11-27T09:04:05.665Z,31.6
2017-11-27T09:06:05.388Z,31.6
2017-11-27T09:08:05.123Z,31.6
2017-11-27T09:10:05.908Z,31.6
2017-11-27T09:12:06.754Z,31.6
2017-11-27T09:14:06.525Z,31.8
2017-11-27T09:16:05.410Z,31.8
2017-11-27T09:18:05.862Z,31.5
2017-11-27T09:20:05.552Z,31.6
2017-11-27T09:22:05.314Z,31.8
2017-11-27T09:24:07.589Z,31.8
2017-11-27T09:26:05.289Z,31.7
2017-11-27T09:28:08.530Z,31.8
2017-11-27T09:30:07.785Z,31.8
2017-11-27T09:32:08.118Z,31.7
2017-11-27T09:34:05.928Z,31.7
2017-11-27T09:36:10.686Z,31.6
2017-11-27T09:38:05.462Z,31.6
2017-11-27T09:40:05.187Z,31.7
2017-11-27T09:42:05.916Z,31.8
2017-11-27T09:44:07.761Z,31.8
2017-11-27T09:46:05.589Z,31.8
2017-11-27T09:48:05.360Z,31.8
2017-11-27T09:50:07.734Z,31.8
2017-11-27T09:52:05.650Z,31.8
2017-11-27T09:54:05.353Z,31.8
2017-11-27T09:56:05.070Z,31.7
2017-11-27T09:58:08.549Z,31.8
2017-11-27T10:02:05.095Z,32
2017-11-27T10:04:08.404Z,32
2017-11-27T10:06:05.642Z,32
2017-11-27T10:08:05.441Z,32
2017-11-27T10:10:05.209Z,31.9
2017-11-27T10:12:05.542Z,31.9
2017-11-27T10:14:07.866Z,31.9
2017-11-27T10:16:05.233Z,31.9
2017-11-27T10:18:05.262Z,32
2017-11-27T10:20:05.999Z,31.9
2017-11-27T10:22:05.482Z,31.9
2017-11-27T10:24:05.852Z,31.8
2017-11-27T10:26:10.635Z,31.8
2017-11-27T10:28:05.401Z,32.1
2017-11-27T10:30:05.159Z,31.8
2017-11-27T10:32:08.425Z,31.8
2017-11-27T10:34:05.268Z,31.8
2017-11-27T10:36:05.097Z,31.9
2017-11-27T10:38:05.827Z,31.8
2017-11-27T10:40:05.587Z,32.1
2017-11-27T10:42:07.927Z,31.9
2017-11-27T10:44:05.685Z,31.8
2017-11-27T10:46:05.475Z,32
2017-11-27T10:48:07.711Z,31.9
2017-11-27T10:50:05.414Z,31.9
2017-11-27T10:52:05.179Z,32
2017-11-27T10:54:05.880Z,32
2017-11-27T10:56:05.116Z,31.8
2017-11-27T10:58:05.895Z,32.1
2017-11-27T11:00:05.162Z,31.8
2017-11-27T11:02:05.953Z,31.8
2017-11-27T11:04:07.764Z,31.8
2017-11-27T11:06:05.520Z,31.8
2017-11-27T11:08:05.275Z,32
2017-11-27T11:10:10.086Z,32
2017-11-27T11:12:05.802Z,31.9
2017-11-27T11:14:05.508Z,31.8
2017-11-27T11:16:05.887Z,32
2017-11-27T11:18:05.879Z,31.9
2017-11-27T11:20:05.714Z,32
2017-11-27T11:22:05.481Z,32
2017-11-27T11:24:05.230Z,32
2017-11-27T11:26:05.935Z,32
2017-11-27T11:28:05.728Z,32
2017-11-27T11:30:05.460Z,31.9
2017-11-27T11:32:07.753Z,32
2017-11-27T11:34:05.548Z,32
2017-11-27T11:36:05.216Z,32
2017-11-27T11:38:05.455Z,32
2017-11-27T11:40:12.857Z,32
2017-11-27T11:42:05.681Z,32
2017-11-27T11:44:05.474Z,32
2017-11-27T11:46:05.593Z,32
2017-11-27T11:48:05.314Z,31.9
2017-11-27T11:50:07.565Z,32.2
2017-11-27T11:52:05.382Z,32
2017-11-27T11:54:05.764Z,32.1
2017-11-27T11:56:05.495Z,31.8
2017-11-27T11:58:08.269Z,31.8
2017-11-27T12:00:08.500Z,31.8
2017-11-27T12:02:05.262Z,31.8
2017-11-27T12:04:08.605Z,32
2017-11-27T12:06:05.896Z,32.1
2017-11-27T12:08:05.674Z,32
2017-11-27T12:10:05.498Z,31.9
2017-11-27T12:12:05.727Z,31.9
2017-11-27T12:14:06.161Z,31.9
2017-11-27T12:16:08.550Z,32
2017-11-27T12:18:05.495Z,32
2017-11-27T12:20:08.279Z,32
2017-11-27T12:22:05.249Z,32
2017-11-27T12:24:06.019Z,32
2017-11-27T12:26:05.309Z,32
2017-11-27T12:28:05.236Z,32
2017-11-27T12:30:05.576Z,32
2017-11-27T12:32:07.808Z,31.9
2017-11-27T12:34:05.595Z,31.9
2017-11-27T12:36:06.574Z,31.9
2017-11-27T12:38:05.752Z,31.9
2017-11-27T12:40:06.542Z,31.9
2017-11-27T12:42:25.867Z,31.9
2017-11-27T12:44:05.133Z,31.9
2017-11-27T12:46:05.138Z,31.9
2017-11-27T12:48:05.649Z,31.8
2017-11-27T12:50:05.378Z,31.8
2017-11-27T12:52:05.114Z,31.8
2017-11-27T12:54:05.398Z,31.9
2017-11-27T12:56:07.656Z,31.8
2017-11-27T12:58:09.650Z,31.8
2017-11-27T13:00:05.474Z,31.8
2017-11-27T13:02:12.856Z,31.8
2017-11-27T13:04:10.886Z,32
2017-11-27T13:06:06.143Z,31.8
2017-11-27T13:08:07.325Z,31.8
2017-11-27T13:10:05.585Z,31.8
2017-11-27T13:12:05.316Z,31.8
2017-11-27T13:14:05.188Z,31.8
2017-11-27T13:16:05.931Z,31.8
2017-11-27T13:18:08.148Z,31.8
2017-11-27T13:20:08.747Z,32
2017-11-27T13:22:06.092Z,32
2017-11-27T13:24:13.442Z,32
2017-11-27T13:26:08.197Z,32
2017-11-27T13:28:05.431Z,31.9
2017-11-27T13:30:05.367Z,31.9
2017-11-27T13:32:05.625Z,31.9
2017-11-27T13:34:05.880Z,31.7
2017-11-27T13:36:05.644Z,32
2017-11-27T13:38:05.338Z,32
2017-11-27T13:40:05.180Z,31.9
2017-11-27T13:42:05.659Z,31.9
2017-11-27T13:44:06.019Z,31.9
2017-11-27T13:46:10.424Z,31.9
2017-11-27T13:48:07.774Z,31.9
2017-11-27T13:50:05.532Z,31.9
2017-11-27T13:52:06.324Z,31.9
2017-11-27T13:54:07.587Z,31.8
2017-11-27T13:56:05.806Z,31.8
2017-11-27T13:58:05.578Z,31.9
2017-11-27T14:00:05.299Z,31.8
2017-11-27T14:02:07.613Z,31.8
2017-11-27T14:04:05.380Z,31.8
2017-11-27T14:06:05.149Z,31.9
2017-11-27T14:08:05.946Z,31.8
2017-11-27T14:10:05.653Z,31.8
2017-11-27T14:12:05.392Z,31.8
2017-11-27T14:14:05.123Z,31.8
2017-11-27T14:16:05.869Z,31.8
2017-11-27T14:18:05.990Z,31.9
2017-11-27T14:20:05.700Z,31.9
2017-11-27T14:22:05.996Z,31.9
2017-11-27T14:24:05.767Z,31.9
2017-11-27T14:26:06.226Z,31.8
2017-11-27T14:28:06.012Z,31.8
2017-11-27T14:30:05.255Z,31.8
2017-11-27T14:32:06.050Z,32
2017-11-27T14:34:05.783Z,32
2017-11-27T14:36:05.044Z,32
2017-11-27T14:38:05.808Z,32
2017-11-27T14:40:08.103Z,32
2017-11-27T14:42:05.828Z,32
2017-11-27T14:44:05.137Z,32
2017-11-27T14:46:05.854Z,32.1
2017-11-27T14:48:08.117Z,32
2017-11-27T14:50:05.652Z,32
2017-11-27T14:52:05.570Z,32
2017-11-27T14:54:05.314Z,32.1
2017-11-27T14:56:07.593Z,32.1
2017-11-27T14:58:07.892Z,32.1
2017-11-27T15:00:05.631Z,32.1
2017-11-27T15:02:08.474Z,32.1
2017-11-27T15:04:05.889Z,32
2017-11-27T15:06:05.132Z,32
2017-11-27T15:08:05.601Z,32.2
2017-11-27T15:10:07.962Z,32.2
2017-11-27T15:12:12.819Z,32.1
2017-11-27T15:14:05.569Z,32.1
2017-11-27T15:16:05.901Z,32.2
2017-11-27T15:18:05.922Z,32.1
2017-11-27T15:20:08.181Z,32
2017-11-27T15:22:06.152Z,32
2017-11-27T15:24:05.419Z,31.9
2017-11-27T15:26:05.186Z,32.1
2017-11-27T15:28:05.952Z,31.9
2017-11-27T15:30:05.967Z,32.2
2017-11-27T15:32:05.764Z,32.2
2017-11-27T15:34:05.616Z,31.9
2017-11-27T15:36:07.858Z,32.2
2017-11-27T15:38:08.150Z,32
2017-11-27T15:40:08.445Z,32.2
2017-11-27T15:42:07.852Z,32.1
2017-11-27T15:44:05.585Z,32.1
2017-11-27T15:46:05.400Z,32.1
2017-11-27T15:48:05.603Z,32.1
2017-11-27T15:50:06.337Z,32.3
2017-11-27T15:52:07.636Z,32.1
2017-11-27T15:54:05.361Z,32
2017-11-27T15:56:05.158Z,32.2
2017-11-27T15:58:05.945Z,32.2
2017-11-27T16:00:05.693Z,32.1
2017-11-27T16:02:15.772Z,32.1
2017-11-27T16:04:05.527Z,32.2
2017-11-27T16:06:05.299Z,32.1
2017-11-27T16:08:05.012Z,32.1
2017-11-27T16:10:10.346Z,32.1
2017-11-27T16:12:05.364Z,32.1
2017-11-27T16:14:05.226Z,32.1
2017-11-27T16:16:06.050Z,32.1
2017-11-27T16:18:05.623Z,32.1
2017-11-27T16:20:07.947Z,32
2017-11-27T16:22:05.203Z,32
2017-11-27T16:24:05.754Z,32
2017-11-27T16:26:05.555Z,32
2017-11-27T16:28:05.345Z,32
2017-11-27T16:30:05.622Z,32.2
2017-11-27T16:32:05.356Z,32
2017-11-27T16:34:12.846Z,32
2017-11-27T16:36:07.626Z,32.2
2017-11-27T16:38:05.415Z,32.2
2017-11-27T16:40:05.767Z,32
2017-11-27T16:42:05.566Z,32
2017-11-27T16:44:05.572Z,32
2017-11-27T16:46:05.435Z,32.2
2017-11-27T16:48:05.201Z,32.2
2017-11-27T16:50:05.983Z,32
2017-11-27T16:52:05.324Z,32
2017-11-27T16:54:08.305Z,32
2017-11-27T16:56:06.031Z,32
2017-11-27T16:58:08.478Z,32.3
2017-11-27T17:00:07.699Z,32.3
2017-11-27T17:02:07.938Z,32.2
2017-11-27T17:04:05.691Z,32.2
2017-11-27T17:06:05.692Z,32.2
2017-11-27T17:08:05.398Z,32.2
2017-11-27T17:10:05.661Z,32.2
2017-11-27T17:12:05.463Z,32.3
2017-11-27T17:14:05.215Z,32.3
2017-11-27T17:16:08.106Z,32.3
2017-11-27T17:18:05.124Z,32.3
2017-11-27T17:20:05.408Z,32.3
2017-11-27T17:22:10.212Z,32.1
2017-11-27T17:24:05.897Z,32.1
2017-11-27T17:26:05.166Z,32.2
2017-11-27T17:28:11.053Z,32.4
2017-11-27T17:30:05.803Z,32.4
2017-11-27T17:32:05.658Z,32.2
2017-11-27T17:34:05.418Z,32.2
2017-11-27T17:36:07.876Z,32.3
2017-11-27T17:38:08.210Z,32.3
2017-11-27T17:40:05.473Z,32.3
2017-11-27T17:42:05.218Z,32.2
2017-11-27T17:44:08.543Z,32.3
2017-11-27T17:46:10.397Z,32.3
2017-11-27T17:48:05.149Z,32.3
2017-11-27T17:50:08.420Z,32.4
2017-11-27T17:52:05.175Z,32.4
2017-11-27T17:54:08.029Z,32.4
2017-11-27T17:56:05.826Z,32.4
2017-11-27T17:58:05.601Z,32.5
2017-11-27T18:00:05.302Z,32.3
2017-11-27T18:02:05.074Z,32.3
2017-11-27T18:04:06.048Z,32.4
2017-11-27T18:06:05.735Z,32.4
2017-11-27T18:08:06.033Z,32.4
2017-11-27T18:10:05.852Z,32.4
2017-11-27T18:12:05.616Z,32.4
2017-11-27T18:14:07.881Z,32.4
2017-11-27T18:16:05.594Z,32.4
2017-11-27T18:18:05.580Z,32.4
2017-11-27T18:20:05.341Z,32.4
2017-11-27T18:22:05.199Z,32.4
2017-11-27T18:24:08.534Z,32.3
2017-11-27T18:26:10.924Z,32.4
2017-11-27T18:28:05.255Z,32.4
2017-11-27T18:30:05.038Z,32.3
2017-11-27T18:32:08.313Z,32.5
2017-11-27T18:34:05.641Z,32.3
2017-11-27T18:36:05.372Z,32.3
2017-11-27T18:38:05.697Z,32.5
2017-11-27T18:40:06.045Z,32.6
2017-11-27T18:42:10.427Z,32.5
2017-11-27T18:44:05.214Z,32.5
2017-11-27T18:46:08.486Z,32.5
2017-11-27T18:48:07.822Z,32.5
2017-11-27T18:50:05.613Z,32.5
2017-11-27T18:52:05.317Z,32.4
2017-11-27T18:54:05.577Z,32.5
2017-11-27T18:56:05.887Z,32.9
2017-11-27T18:58:05.187Z,32.3
2017-11-27T19:00:05.426Z,32.2
2017-11-27T19:02:05.186Z,32
2017-11-27T19:04:05.983Z,32
2017-11-27T19:06:08.609Z,32
2017-11-27T19:08:06.072Z,32
2017-11-27T19:10:05.830Z,32
2017-11-27T19:12:14.332Z,31.8
2017-11-27T19:14:05.901Z,31.8
2017-11-27T19:16:05.672Z,32
2017-11-27T19:18:05.689Z,31.9
2017-11-27T19:20:05.446Z,32
2017-11-27T19:22:07.888Z,31.9
2017-11-27T19:24:05.684Z,31.9
2017-11-27T19:26:05.382Z,32.1
2017-11-27T19:28:05.201Z,32.1
2017-11-27T19:30:07.128Z,32.1
2017-11-27T19:32:05.472Z,32.1
2017-11-27T19:34:11.800Z,32.1
2017-11-27T19:36:05.361Z,32.1
2017-11-27T19:38:07.666Z,32.1
2017-11-27T19:40:05.417Z,32.1
2017-11-27T19:42:10.313Z,31.8
2017-11-27T19:44:05.080Z,31.9
2017-11-27T19:46:05.375Z,31.9
2017-11-27T19:48:05.097Z,32
2017-11-27T19:50:05.865Z,31.9
2017-11-27T19:52:08.131Z,31.9
2017-11-27T19:54:08.875Z,32
2017-11-27T19:56:08.378Z,31.9
2017-11-27T19:58:05.816Z,32
2017-11-27T20:00:06.650Z,32
2017-11-27T20:02:06.099Z,31.9
2017-11-27T20:04:05.031Z,31.9
2017-11-27T20:06:05.774Z,32
2017-11-27T20:08:05.586Z,32
2017-11-27T20:10:05.415Z,31.9
2017-11-27T20:12:05.164Z,31.9
2017-11-27T20:14:05.104Z,32
2017-11-27T20:16:08.387Z,31.9
2017-11-27T20:18:05.368Z,31.9
2017-11-27T20:20:05.103Z,32
2017-11-27T20:22:05.060Z,32
2017-11-27T20:24:08.058Z,32
2017-11-27T20:26:07.277Z,32.1
2017-11-27T20:28:06.152Z,32.1
2017-11-27T20:30:09.362Z,32.1
2017-11-27T20:32:05.832Z,32.1
2017-11-27T20:34:11.901Z,32.2
2017-11-27T20:36:12.903Z,32.2
2017-11-27T20:38:12.161Z,32.3
2017-11-27T20:40:10.393Z,32.2
2017-11-27T20:42:06.299Z,32.3
2017-11-27T20:44:06.058Z,32.5
2017-11-27T20:46:13.464Z,32
2017-11-27T20:48:05.979Z,32.3
2017-11-27T20:50:05.922Z,32.3
2017-11-27T20:52:06.001Z,32
2017-11-27T20:54:08.725Z,32
2017-11-27T20:56:06.029Z,32
2017-11-27T20:58:05.136Z,32
2017-11-27T21:00:05.977Z,32
2017-11-27T21:02:15.256Z,32
2017-11-27T21:04:08.112Z,32.1
2017-11-27T21:06:11.114Z,32.1
2017-11-27T21:08:06.152Z,32.1
2017-11-27T21:10:05.356Z,32
2017-11-27T21:12:07.792Z,31.9
2017-11-27T21:14:11.838Z,31.9
2017-11-27T21:16:05.991Z,31.9
2017-11-27T21:18:14.753Z,31.9
2017-11-27T21:20:05.512Z,31.9
2017-11-27T21:22:05.312Z,32
2017-11-27T21:24:06.300Z,31.9
2017-11-27T21:26:07.743Z,32
2017-11-27T21:28:05.479Z,32
2017-11-27T21:30:10.831Z,32
2017-11-27T21:32:05.618Z,32
2017-11-27T21:34:13.314Z,32
2017-11-27T21:36:05.370Z,32
2017-11-27T21:38:05.168Z,32
2017-11-27T21:40:05.152Z,32
2017-11-27T21:42:05.075Z,31.9
2017-11-27T21:44:07.620Z,31.9
2017-11-27T21:46:05.458Z,31.9
2017-11-27T21:48:06.030Z,32.1
2017-11-27T21:50:10.541Z,31.9
2017-11-27T21:52:08.417Z,32
2017-11-27T21:54:05.158Z,31.9
2017-11-27T21:56:05.887Z,31.9
2017-11-27T21:58:05.852Z,32
2017-11-27T22:00:05.407Z,31.9
2017-11-27T22:02:05.257Z,31.9
2017-11-27T22:04:06.000Z,31.9
2017-11-27T22:06:09.677Z,31.9
2017-11-27T22:08:05.673Z,31.7
2017-11-27T22:10:05.647Z,31.9
2017-11-27T22:12:07.927Z,32
2017-11-27T22:14:05.197Z,31.8
2017-11-27T22:16:05.920Z,31.8
2017-11-27T22:18:11.053Z,31.8
2017-11-27T22:20:08.882Z,31.8
2017-11-27T22:22:05.166Z,31.8
2017-11-27T22:24:05.910Z,31.8
2017-11-27T22:26:05.647Z,31.8
2017-11-27T22:28:05.377Z,31.8
2017-11-27T22:30:05.114Z,31.8
2017-11-27T22:32:05.874Z,31.8
2017-11-27T22:34:05.198Z,31.8
2017-11-27T22:36:05.893Z,31.8
2017-11-27T22:38:08.250Z,31.8
2017-11-27T22:40:05.781Z,31.8
2017-11-27T22:42:06.013Z,31.8
2017-11-27T22:44:05.782Z,31.8
2017-11-27T22:46:09.800Z,31.8
2017-11-27T22:48:06.207Z,31.8
2017-11-27T22:50:06.497Z,32.1
2017-11-27T22:52:06.241Z,32.2
2017-11-27T22:54:05.713Z,32
2017-11-27T22:56:05.684Z,32.1
2017-11-27T22:58:05.455Z,32.1
2017-11-27T23:00:05.233Z,32.2
2017-11-27T23:02:05.551Z,32.2
2017-11-27T23:04:07.820Z,32.1
2017-11-27T23:06:08.087Z,32
2017-11-27T23:08:05.792Z,32
2017-11-27T23:10:05.535Z,32
2017-11-27T23:12:05.321Z,32
2017-11-27T23:14:05.667Z,32.1
2017-11-27T23:16:05.430Z,32.1
2017-11-27T23:18:05.318Z,31.9
2017-11-27T23:20:05.087Z,32
2017-11-27T23:22:05.843Z,32
2017-11-27T23:24:05.569Z,32
2017-11-27T23:26:05.316Z,31.9
2017-11-27T23:28:05.089Z,31.9
2017-11-27T23:30:05.831Z,31.8
2017-11-27T23:32:05.612Z,32
2017-11-27T23:34:08.443Z,31.6
2017-11-27T23:36:05.144Z,31.7
2017-11-27T23:38:05.875Z,31.7
2017-11-27T23:40:05.650Z,31.8
2017-11-27T23:42:05.378Z,31.7
2017-11-27T23:44:08.424Z,31.9
2017-11-27T23:46:05.169Z,31.9
2017-11-27T23:48:08.496Z,31.6
2017-11-27T23:50:05.218Z,31.6
2017-11-27T23:52:05.938Z,31.8
2017-11-27T23:54:05.692Z,31.5
2017-11-27T23:56:18.091Z,31.6
2017-11-27T23:58:05.920Z,31.6
